Time;durP1;ratioP1;P1;durP2;ratioP2;P2;SDS_P1;SDS_P2;PMS_P1;PMS_P2;Temp;Humidity;BMP_temperature;BMP_pressure;BME280_temperature;BME280_humidity;BME280_pressure;Samples;Min_cycle;Max_cycle;Signal;HPM_P1;HPM_P2
2021/09/10 00:01:08;;;;;;;4.28;2.55;;;;;;;18.65;77.82;99677.63;4989569;28;20034;-74
2021/09/10 00:03:33;;;;;;;3.75;3.40;;;;;;;18.66;77.96;99673.72;4987389;28;20049;-75
2021/09/10 00:05:59;;;;;;;6.72;4.32;;;;;;;18.66;77.65;99670.94;4987750;28;20073;-75
2021/09/10 00:08:24;;;;;;;2.38;2.28;;;;;;;18.69;78.04;99668.63;4987428;28;20031;-74
2021/09/10 00:10:50;;;;;;;4.22;3.25;;;;;;;18.70;77.92;99678.56;4991405;28;20039;-75
2021/09/10 00:13:15;;;;;;;2.30;1.75;;;;;;;18.70;77.53;99673.03;4986334;28;20030;-75
2021/09/10 00:15:41;;;;;;;4.47;2.50;;;;;;;18.76;77.70;99672.50;4976498;28;20042;-75
2021/09/10 00:18:06;;;;;;;3.53;2.58;;;;;;;18.76;77.13;99675.25;4982733;28;20034;-75
2021/09/10 00:20:32;;;;;;;2.00;1.90;;;;;;;18.79;77.21;99673.75;4981925;28;20023;-70
2021/09/10 00:22:57;;;;;;;3.22;3.03;;;;;;;18.82;77.20;99678.59;4966179;28;20034;-70
2021/09/10 00:25:23;;;;;;;2.10;2.00;;;;;;;18.84;77.78;99676.31;4985575;28;20034;-69
2021/09/10 00:27:48;;;;;;;4.80;3.15;;;;;;;18.86;77.62;99676.81;4987740;28;20038;-69
2021/09/10 00:30:14;;;;;;;2.90;2.63;;;;;;;18.82;77.07;99673.91;4987353;28;21776;-67
2021/09/10 00:32:39;;;;;;;2.70;2.60;;;;;;;18.90;77.36;99677.75;4986512;28;20042;-68
2021/09/10 00:35:05;;;;;;;2.55;2.35;;;;;;;18.89;77.28;99680.88;4988899;28;20411;-67
2021/09/10 00:37:31;;;;;;;1.65;1.55;;;;;;;18.92;76.87;99680.97;5003724;28;20022;-69
2021/09/10 00:39:56;;;;;;;1.75;1.58;;;;;;;18.95;77.18;99685.88;4990455;28;20013;-68
2021/09/10 00:42:22;;;;;;;2.72;2.53;;;;;;;18.94;77.54;99687.00;5001276;28;20039;-69
2021/09/10 00:44:47;;;;;;;1.42;1.33;;;;;;;18.97;77.15;99685.53;5008190;28;20544;-70
2021/09/10 00:47:13;;;;;;;2.42;1.88;;;;;;;18.98;77.17;99684.34;5001985;28;20168;-69
2021/09/10 00:49:40;;;;;;;2.35;2.25;;;;;;;19.00;76.90;99693.16;5006535;28;20080;-69
2021/09/10 00:52:06;;;;;;;2.38;2.28;;;;;;;19.01;76.72;99687.28;4976584;28;20486;-70
2021/09/10 00:54:31;;;;;;;6.15;2.55;;;;;;;19.00;77.27;99693.16;5003402;28;20042;-68
2021/09/10 00:56:59;;;;;;;2.40;2.30;;;;;;;18.99;76.74;99695.09;4985950;28;20057;-69
2021/09/10 00:59:24;;;;;;;2.33;2.20;;;;;;;19.00;77.11;99688.41;5005175;28;20137;-69
2021/09/10 01:01:50;;;;;;;1.77;1.67;;;;;;;19.00;77.08;99696.72;5004154;28;20025;-68
2021/09/10 01:04:18;;;;;;;3.20;2.90;;;;;;;18.97;76.95;99689.09;5002028;28;20543;-69
2021/09/10 01:06:45;;;;;;;1.55;1.45;;;;;;;18.98;77.11;99685.19;4991647;28;20092;-69
2021/09/10 01:09:11;;;;;;;4.10;3.20;;;;;;;19.02;76.86;99693.63;4992014;28;20395;-69
2021/09/10 01:11:37;;;;;;;2.15;1.95;;;;;;;18.97;76.74;99685.53;4971884;28;20026;-68
2021/09/10 01:14:03;;;;;;;2.53;2.42;;;;;;;19.00;76.85;99688.41;5006803;28;20551;-68
2021/09/10 01:16:29;;;;;;;2.08;1.98;;;;;;;19.02;76.86;99686.09;4989293;28;20045;-69
2021/09/10 01:18:54;;;;;;;1.77;1.67;;;;;;;19.06;76.98;99685.44;5006546;28;20112;-69
2021/09/10 01:21:20;;;;;;;2.15;2.05;;;;;;;19.05;77.18;99681.84;5011080;28;20500;-69
2021/09/10 01:23:45;;;;;;;3.05;2.80;;;;;;;19.05;76.47;99678.28;5005872;28;20040;-69
2021/09/10 01:26:11;;;;;;;2.83;2.63;;;;;;;19.02;76.52;99677.78;5006526;28;20033;-69
2021/09/10 01:28:36;;;;;;;2.60;2.50;;;;;;;19.03;76.96;99678.63;5003965;28;20026;-69
2021/09/10 01:31:02;;;;;;;2.95;2.75;;;;;;;18.98;77.01;99674.09;5000367;28;20475;-70
2021/09/10 01:33:28;;;;;;;2.97;1.90;;;;;;;19.00;76.99;99682.88;5005367;28;20073;-70
2021/09/10 01:35:53;;;;;;;2.28;2.17;;;;;;;19.00;76.71;99674.56;4998456;28;20078;-71
2021/09/10 01:38:19;;;;;;;2.28;2.13;;;;;;;19.02;76.84;99669.47;4996937;28;20385;-71
2021/09/10 01:40:44;;;;;;;2.00;1.90;;;;;;;19.05;76.84;99672.72;5002070;28;20033;-71
2021/09/10 01:43:10;;;;;;;2.97;2.20;;;;;;;19.06;77.00;99668.81;5003826;28;20490;-71
2021/09/10 01:45:36;;;;;;;6.93;2.67;;;;;;;19.07;76.59;99675.97;5007506;28;20030;-70
2021/09/10 01:48:02;;;;;;;2.00;1.90;;;;;;;19.06;76.82;99671.59;5006802;28;20022;-69
2021/09/10 01:50:27;;;;;;;1.90;1.75;;;;;;;19.07;76.95;99674.03;5001403;28;20041;-69
2021/09/10 01:52:53;;;;;;;2.72;2.53;;;;;;;19.07;77.13;99670.41;5004415;28;20040;-69
2021/09/10 01:55:19;;;;;;;3.58;3.30;;;;;;;19.06;76.85;99669.63;5007156;28;20041;-71
2021/09/10 01:57:47;;;;;;;3.40;3.20;;;;;;;19.06;77.38;99669.63;4989304;28;20152;-71
2021/09/10 02:00:14;;;;;;;1.90;1.80;;;;;;;19.04;76.72;99673.88;5007489;28;20456;-70
2021/09/10 02:02:40;;;;;;;2.25;2.15;;;;;;;19.06;76.75;99677.94;5005299;28;20482;-70
2021/09/10 02:05:10;;;;;;;2.50;2.30;;;;;;;19.04;76.73;99671.94;4988441;28;20037;-73
2021/09/10 02:07:36;;;;;;;3.03;2.10;;;;;;;19.07;76.62;99678.72;4993587;22;20058;-70
2021/09/10 02:10:07;;;;;;;2.63;2.53;;;;;;;19.06;76.85;99675.16;4985351;28;20384;-71
2021/09/10 02:12:33;;;;;;;2.15;2.05;;;;;;;19.07;77.22;99681.50;4988290;28;20133;-69
2021/09/10 02:14:58;;;;;;;2.40;2.20;;;;;;;19.07;76.95;99678.72;4995091;28;20125;-71
2021/09/10 02:17:24;;;;;;;2.85;2.75;;;;;;;19.04;76.63;99674.72;5000669;28;20022;-70
2021/09/10 02:19:49;;;;;;;5.32;3.10;;;;;;;19.01;77.06;99673.41;4994423;28;20028;-70
2021/09/10 02:22:15;;;;;;;5.95;3.13;;;;;;;19.02;76.77;99674.22;4992667;28;20113;-71
2021/09/10 02:24:40;;;;;;;4.20;4.00;;;;;;;18.99;77.03;99674.91;4952540;28;20424;-71
2021/09/10 02:27:06;;;;;;;3.17;2.97;;;;;;;19.00;76.92;99671.78;4974193;28;20053;-70
2021/09/10 02:29:31;;;;;;;3.58;2.90;;;;;;;19.02;76.87;99674.22;4970114;28;20092;-70
2021/09/10 02:31:57;;;;;;;2.88;2.67;;;;;;;19.00;77.14;99677.34;4992846;28;20033;-71
2021/09/10 02:34:23;;;;;;;2.97;2.88;;;;;;;19.01;76.87;99681.72;4995883;28;20057;-70
2021/09/10 02:36:48;;;;;;;5.15;3.53;;;;;;;19.00;76.73;99677.34;4994245;28;20034;-73
2021/09/10 02:39:14;;;;;;;2.53;2.42;;;;;;;18.98;77.37;99674.09;4991409;28;20027;-73
2021/09/10 02:41:40;;;;;;;2.35;2.25;;;;;;;19.00;76.95;99673.75;4995487;28;20050;-73
2021/09/10 02:44:07;;;;;;;2.63;2.50;;;;;;;19.02;77.41;99669.47;4987281;28;20039;-74
2021/09/10 02:46:33;;;;;;;3.83;3.53;;;;;;;19.01;77.02;99676.19;4998414;28;20054;-74
2021/09/10 02:48:59;;;;;;;3.33;3.22;;;;;;;19.00;77.19;99676.53;5003679;28;20101;-74
2021/09/10 02:51:24;;;;;;;4.30;4.00;;;;;;;18.99;76.99;99672.94;4996452;28;20137;-73
2021/09/10 02:53:50;;;;;;;5.55;5.13;;;;;;;19.00;76.88;99666.25;4976271;28;20508;-73
2021/09/10 02:56:15;;;;;;;4.05;3.80;;;;;;;19.00;77.30;99666.25;4998334;28;20026;-73
2021/09/10 02:58:41;;;;;;;3.78;3.55;;;;;;;19.03;77.04;99659.22;4972157;28;20105;-72
2021/09/10 03:01:06;;;;;;;5.57;5.13;;;;;;;19.02;76.51;99661.16;4969873;28;20033;-76
2021/09/10 03:03:32;;;;;;;6.22;5.72;;;;;;;19.04;76.83;99660.03;4994280;28;20456;-76
2021/09/10 03:05:58;;;;;;;5.90;5.38;;;;;;;19.01;77.16;99665.09;4988284;28;20022;-75
2021/09/10 03:08:23;;;;;;;4.30;4.18;;;;;;;19.01;76.79;99650.44;4995248;28;20046;-76
2021/09/10 03:10:49;;;;;;;6.75;6.15;;;;;;;19.01;76.76;99655.97;4994911;28;20077;-74
2021/09/10 03:13:15;;;;;;;6.88;6.28;;;;;;;19.00;77.38;99655.16;4983616;28;20481;-74
2021/09/10 03:15:41;;;;;;;5.68;5.38;;;;;;;18.98;76.72;99657.47;4995791;28;20040;-73
2021/09/10 03:18:06;;;;;;;7.25;6.60;;;;;;;18.93;76.93;99654.91;4991992;28;20041;-74
2021/09/10 03:20:32;;;;;;;6.57;6.00;;;;;;;18.87;77.07;99656.28;4959946;28;20045;-74
2021/09/10 03:22:58;;;;;;;6.18;5.88;;;;;;;18.87;77.32;99649.94;4990975;28;20065;-73
2021/09/10 03:25:23;;;;;;;10.23;5.88;;;;;;;18.82;77.51;99653.69;4986855;28;20054;-74
2021/09/10 03:27:49;;;;;;;6.20;5.70;;;;;;;18.81;77.90;99654.84;4985471;28;20121;-74
2021/09/10 03:30:15;;;;;;;5.53;5.10;;;;;;;18.77;77.43;99657.47;4992011;28;20039;-74
2021/09/10 03:32:41;;;;;;;6.65;6.00;;;;;;;18.75;77.61;99653.41;4990532;28;20096;-74
2021/09/10 03:35:08;;;;;;;5.28;4.88;;;;;;;18.74;78.43;99651.81;4986542;28;20054;-75
2021/09/10 03:37:33;;;;;;;6.38;5.97;;;;;;;18.74;78.17;99651.81;4984796;28;20049;-75
2021/09/10 03:39:59;;;;;;;9.52;4.60;;;;;;;18.75;78.37;99647.88;4992654;28;20788;-75
2021/09/10 03:42:24;;;;;;;8.73;6.55;;;;;;;18.73;77.93;99650.19;4972495;28;20051;-74
2021/09/10 03:44:52;;;;;;;5.38;4.90;;;;;;;18.73;78.28;99650.19;4989381;28;20061;-74
2021/09/10 03:47:18;;;;;;;4.05;3.85;;;;;;;18.74;78.01;99652.63;4989568;28;20041;-73
2021/09/10 03:49:43;;;;;;;4.75;4.45;;;;;;;18.76;78.46;99655.03;4975918;28;20023;-75
2021/09/10 03:52:09;;;;;;;3.33;3.08;;;;;;;18.78;78.72;99648.03;4993807;28;20053;-74
2021/09/10 03:54:34;;;;;;;4.60;4.30;;;;;;;18.79;78.80;99654.38;4970612;28;20034;-75
2021/09/10 03:57:00;;;;;;;5.25;4.85;;;;;;;18.80;78.24;99651.25;4981145;28;20117;-77
2021/09/10 03:59:25;;;;;;;5.00;4.63;;;;;;;18.79;78.41;99644.13;4987800;28;20054;-75
2021/09/10 04:01:51;;;;;;;5.82;4.97;;;;;;;18.80;78.55;99667.06;4994875;28;20030;-74
2021/09/10 04:04:17;;;;;;;4.00;3.80;;;;;;;18.79;78.50;99654.38;4988267;28;20035;-75
2021/09/10 04:06:42;;;;;;;3.17;2.97;;;;;;;18.80;78.37;99656.00;4992375;28;20070;-74
2021/09/10 04:09:08;;;;;;;3.28;2.97;;;;;;;18.83;78.24;99652.53;4955381;28;20117;-73
2021/09/10 04:11:35;;;;;;;3.72;3.53;;;;;;;18.83;78.95;99650.56;4974612;28;20037;-71
2021/09/10 04:14:01;;;;;;;3.60;3.30;;;;;;;18.84;78.53;99649.44;4993173;28;20041;-72
2021/09/10 04:16:27;;;;;;;3.05;2.85;;;;;;;18.86;78.76;99643.56;4984309;28;20022;-72
2021/09/10 04:18:53;;;;;;;6.90;4.00;;;;;;;18.85;78.38;99641.91;4989318;28;20026;-72
2021/09/10 04:21:18;;;;;;;2.88;2.67;;;;;;;18.84;78.39;99643.88;4953032;28;20061;-73
2021/09/10 04:23:44;;;;;;;2.67;2.47;;;;;;;18.85;78.68;99641.91;4988247;28;20022;-74
2021/09/10 04:26:10;;;;;;;3.40;3.15;;;;;;;18.82;78.37;99648.13;4953351;28;20062;-74
2021/09/10 04:28:36;;;;;;;2.60;2.50;;;;;;;18.79;79.06;99651.59;4988130;28;20420;-73
2021/09/10 04:31:01;;;;;;;3.28;2.85;;;;;;;18.76;79.10;99655.03;4990135;28;20030;-74
2021/09/10 04:33:27;;;;;;;3.20;3.00;;;;;;;18.73;79.40;99655.72;4987161;28;20101;-73
2021/09/10 04:35:52;;;;;;;2.95;2.85;;;;;;;18.72;78.72;99654.09;4986244;28;20437;-74
2021/09/10 04:38:17;;;;;;;2.88;2.67;;;;;;;18.69;78.90;99647.31;4969036;28;20544;-74
2021/09/10 04:40:43;;;;;;;2.17;2.08;;;;;;;18.71;79.64;99652.50;4985767;28;20022;-74
2021/09/10 04:43:10;;;;;;;2.03;1.92;;;;;;;18.74;79.30;99657.34;4973428;28;20499;-75
2021/09/10 04:45:35;;;;;;;3.53;3.20;;;;;;;18.74;79.37;99663.69;4987389;28;20023;-75
2021/09/10 04:48:00;;;;;;;3.45;3.15;;;;;;;18.70;79.58;99657.22;4994255;28;20360;-76
2021/09/10 04:50:26;;;;;;;2.55;2.45;;;;;;;18.70;79.68;99656.41;4975054;28;20038;-74
2021/09/10 04:52:51;;;;;;;3.53;3.22;;;;;;;18.63;79.38;99657.78;4992031;28;20084;-73
2021/09/10 04:55:17;;;;;;;3.40;2.90;;;;;;;18.61;79.67;99654.53;4993703;28;20036;-74
2021/09/10 04:57:43;;;;;;;2.58;2.47;;;;;;;18.58;80.18;99655.19;4997354;28;20121;-75
2021/09/10 05:00:08;;;;;;;2.40;2.30;;;;;;;18.59;80.04;99650.50;4992164;28;20106;-75
2021/09/10 05:02:34;;;;;;;3.22;2.92;;;;;;;18.55;80.45;99660.63;4973243;28;20034;-75
2021/09/10 05:04:59;;;;;;;3.15;2.70;;;;;;;18.49;80.30;99657.25;4988053;28;20435;-74
2021/09/10 05:07:26;;;;;;;3.13;2.58;;;;;;;18.48;80.16;99661.16;4974473;28;20133;-74
2021/09/10 05:09:51;;;;;;;2.22;2.03;;;;;;;18.48;80.60;99659.19;4987385;28;20030;-75
2021/09/10 05:12:17;;;;;;;3.08;2.88;;;;;;;18.47;80.93;99662.28;4988935;28;20038;-74
2021/09/10 05:14:43;;;;;;;2.80;2.60;;;;;;;18.46;80.29;99669.00;4986297;28;20033;-70
2021/09/10 05:17:10;;;;;;;3.40;3.28;;;;;;;18.45;80.42;99672.91;4982925;28;20045;-70
2021/09/10 05:19:35;;;;;;;3.40;3.20;;;;;;;18.38;80.63;99670.66;4989579;28;20120;-71
2021/09/10 05:22:01;;;;;;;3.70;3.55;;;;;;;18.38;80.56;99678.97;4989409;28;20061;-71
2021/09/10 05:24:26;;;;;;;3.85;3.17;;;;;;;18.37;81.34;99676.53;4996146;28;20072;-70
2021/09/10 05:26:52;;;;;;;4.05;3.85;;;;;;;18.35;80.99;99673.31;4989081;28;20018;-70
2021/09/10 05:29:17;;;;;;;4.18;3.78;;;;;;;18.37;81.23;99676.53;4976311;28;20038;-70
2021/09/10 05:31:43;;;;;;;3.42;3.33;;;;;;;18.42;81.08;99684.66;4969764;28;20037;-74
2021/09/10 05:34:08;;;;;;;4.40;4.10;;;;;;;18.42;80.87;99685.44;4991414;28;20058;-74
2021/09/10 05:36:33;;;;;;;5.35;5.00;;;;;;;18.42;81.29;99696.53;4984784;28;20039;-74
2021/09/10 05:38:59;;;;;;;7.57;5.28;;;;;;;18.41;80.96;99691.31;4990855;28;20045;-74
2021/09/10 05:41:24;;;;;;;5.88;5.38;;;;;;;18.41;80.64;99694.09;4991159;28;20556;-75
2021/09/10 05:43:50;;;;;;;4.75;4.47;;;;;;;18.44;80.94;99698.94;4973372;28;20027;-75
2021/09/10 05:46:16;;;;;;;4.00;3.75;;;;;;;18.46;81.37;99703.00;4983058;28;20117;-75
2021/09/10 05:48:41;;;;;;;5.07;4.88;;;;;;;18.48;80.84;99706.25;4987378;28;20037;-74
2021/09/10 05:51:11;;;;;;;4.93;4.63;;;;;;;18.50;80.56;99708.69;4990272;28;20030;-75
2021/09/10 05:53:36;;;;;;;4.00;3.80;;;;;;;18.51;80.52;99706.72;4975642;28;20089;-76
2021/09/10 05:56:02;;;;;;;4.28;4.07;;;;;;;18.54;80.67;99706.06;4994236;28;20042;-75
2021/09/10 05:58:28;;;;;;;3.60;3.40;;;;;;;18.53;80.14;99713.56;4978230;28;20038;-76
2021/09/10 06:00:53;;;;;;;3.83;3.63;;;;;;;18.53;80.41;99710.78;4977452;28;20018;-68
2021/09/10 06:03:19;;;;;;;3.10;2.90;;;;;;;18.54;80.55;99709.63;4970159;28;20018;-68
2021/09/10 06:05:44;;;;;;;3.10;2.90;;;;;;;18.56;80.07;99712.88;4954757;28;20124;-68
2021/09/10 06:08:10;;;;;;;3.13;2.95;;;;;;;18.56;80.09;99712.06;4991308;28;20077;-68
2021/09/10 06:10:35;;;;;;;6.88;2.75;;;;;;;18.55;80.42;99705.72;4963830;28;20034;-70
2021/09/10 06:13:01;;;;;;;3.38;3.17;;;;;;;18.60;80.09;99719.38;4990786;28;20567;-67
2021/09/10 06:15:26;;;;;;;3.70;3.50;;;;;;;18.62;80.56;99722.59;4990923;28;20061;-69
2021/09/10 06:17:52;;;;;;;2.53;2.42;;;;;;;18.64;80.45;99720.28;4971650;28;20106;-70
2021/09/10 06:20:18;;;;;;;3.17;2.33;;;;;;;18.61;80.33;99720.97;4970838;28;20055;-68
2021/09/10 06:22:43;;;;;;;3.53;3.33;;;;;;;18.62;80.27;99733.69;4957266;28;20087;-67
2021/09/10 06:25:09;;;;;;;4.95;3.42;;;;;;;18.61;80.18;99742.31;4970889;28;20443;-75
2021/09/10 06:27:37;;;;;;;3.67;3.55;;;;;;;18.60;80.35;99741.53;4993357;28;20411;-75
2021/09/10 06:30:05;;;;;;;3.85;3.55;;;;;;;18.57;80.54;99747.69;4989728;28;20070;-76
2021/09/10 06:32:30;;;;;;;4.35;4.05;;;;;;;18.55;80.10;99747.25;4973861;28;20031;-74
2021/09/10 06:34:56;;;;;;;3.78;3.50;;;;;;;18.56;80.47;99751.66;4977473;28;20132;-76
2021/09/10 06:37:22;;;;;;;3.22;3.03;;;;;;;18.62;80.56;99755.81;4990487;28;20481;-75
2021/09/10 06:39:48;;;;;;;4.05;3.83;;;;;;;18.67;80.13;99763.13;4991209;28;20026;-76
2021/09/10 06:42:14;;;;;;;3.78;3.58;;;;;;;18.73;80.61;99760.97;4974605;28;20030;-73
2021/09/10 06:44:39;;;;;;;4.10;3.75;;;;;;;18.76;80.10;99760.28;4972219;28;20079;-73
2021/09/10 06:47:05;;;;;;;3.90;3.70;;;;;;;18.79;80.18;99777.06;4957638;28;20121;-73
2021/09/10 06:49:31;;;;;;;4.70;4.30;;;;;;;18.78;80.30;99771.84;4987432;28;20022;-73
2021/09/10 06:51:56;;;;;;;3.28;3.08;;;;;;;18.81;79.70;99768.41;4988153;28;20030;-72
2021/09/10 06:54:22;;;;;;;2.47;2.38;;;;;;;18.86;79.72;99771.00;4977765;28;20019;-72
2021/09/10 06:56:48;;;;;;;3.03;2.83;;;;;;;18.91;79.94;99776.34;4955666;28;20049;-73
2021/09/10 06:59:16;;;;;;;3.30;3.15;;;;;;;18.95;79.58;99768.97;4990201;28;20563;-72
2021/09/10 07:01:45;;;;;;;3.35;3.03;;;;;;;18.93;79.34;99774.03;4984911;28;20038;-70
2021/09/10 07:04:11;;;;;;;2.75;2.55;;;;;;;18.98;78.91;99776.59;4972087;28;20030;-74
2021/09/10 07:06:36;;;;;;;2.70;2.60;;;;;;;19.04;79.45;99782.75;4980975;28;20049;-75
2021/09/10 07:09:02;;;;;;;2.78;2.67;;;;;;;19.08;79.20;99782.88;4979839;28;20031;-72
2021/09/10 07:11:28;;;;;;;2.30;2.20;;;;;;;19.12;78.92;99784.63;4994249;22;20073;-73
2021/09/10 07:14:04;;;;;;;;;;;;;;;;;;;;;
2021/09/10 07:16:31;;;;;;;2.22;2.13;;;;;;;19.17;78.00;99789.16;4990153;28;20034;-71
2021/09/10 07:18:57;;;;;;;1.90;1.80;;;;;;;19.19;77.73;99789.63;4987515;28;20080;-71
2021/09/10 07:21:22;;;;;;;2.03;1.83;;;;;;;19.18;77.49;99794.34;4990346;28;20039;-71
2021/09/10 07:23:48;;;;;;;2.33;2.13;;;;;;;19.15;77.62;99797.00;4994133;28;20023;-71
2021/09/10 07:26:14;;;;;;;2.10;2.00;;;;;;;19.13;77.27;99802.09;4995177;28;20037;-72
2021/09/10 07:28:40;;;;;;;1.77;1.67;;;;;;;19.15;77.33;99797.00;4988674;28;20065;-72
2021/09/10 07:31:06;;;;;;;4.75;1.73;;;;;;;19.20;76.92;99807.88;4989086;28;20161;-70
2021/09/10 07:33:36;;;;;;;1.20;1.20;;;;;;;19.23;77.00;99804.44;4986190;28;20034;-71
2021/09/10 07:36:05;;;;;;;2.67;1.80;;;;;;;19.28;77.15;99815.31;4965601;28;20126;-71
2021/09/10 07:38:32;;;;;;;1.65;1.55;;;;;;;19.35;76.56;99820.31;4973468;28;20116;-71
2021/09/10 07:40:57;;;;;;;1.40;1.40;;;;;;;19.42;76.18;99822.53;4970221;28;20029;-70
2021/09/10 07:43:23;;;;;;;3.45;2.10;;;;;;;19.54;76.34;99825.34;4981508;28;20042;-70
2021/09/10 07:45:48;;;;;;;1.40;1.33;;;;;;;19.65;75.84;99818.19;4988069;28;20025;-71
2021/09/10 07:48:14;;;;;;;1.20;1.17;;;;;;;19.75;75.38;99821.72;4964315;28;20049;-72
2021/09/10 07:50:49;;;;;;;1.30;1.20;;;;;;;19.88;74.74;99828.94;4969925;28;20464;-72
2021/09/10 07:53:18;;;;;;;1.15;1.05;;;;;;;20.02;74.39;99832.22;4987674;28;20040;-71
2021/09/10 07:55:43;;;;;;;1.95;1.20;;;;;;;20.10;73.61;99833.25;4984730;28;20029;-71
2021/09/10 07:58:09;;;;;;;1.38;1.35;;;;;;;20.08;72.52;99832.81;4986543;28;20034;-70
2021/09/10 08:00:38;;;;;;;1.13;1.13;;;;;;;20.07;72.51;99825.63;4979250;28;20038;-71
2021/09/10 08:03:03;;;;;;;1.30;1.20;;;;;;;20.21;72.64;99833.63;4983792;28;20074;-72
2021/09/10 08:05:29;;;;;;;0.98;0.98;;;;;;;20.28;72.40;99831.09;4986608;28;20050;-69
2021/09/10 08:07:57;;;;;;;1.05;1.05;;;;;;;20.45;72.37;99840.34;4981287;28;20441;-70
2021/09/10 08:10:23;;;;;;;1.10;1.10;;;;;;;20.58;71.81;99842.75;4978200;28;20019;-70
2021/09/10 08:12:51;;;;;;;1.08;0.98;;;;;;;20.71;71.27;99840.03;4970732;28;20052;-70
2021/09/10 08:15:17;;;;;;;0.90;0.90;;;;;;;20.81;70.51;99841.50;4980097;28;20057;-70
2021/09/10 08:17:43;;;;;;;0.73;0.73;;;;;;;20.96;70.16;99846.34;4984599;28;20025;-73
2021/09/10 08:20:12;;;;;;;0.55;0.55;;;;;;;21.13;69.73;99861.13;4971991;28;20026;-73
2021/09/10 08:22:47;;;;;;;0.80;0.80;;;;;;;21.24;69.08;99849.16;4968527;28;20026;-74
2021/09/10 08:25:13;;;;;;;1.60;0.73;;;;;;;21.39;68.59;99864.31;4982403;28;20377;-73
2021/09/10 08:27:38;;;;;;;2.60;0.45;;;;;;;21.45;67.82;99857.31;4960196;28;20042;-73
2021/09/10 08:32:55;;;;;;;6.40;0.40;;;;;;;21.55;67.14;99866.34;4983419;28;20122;-73
2021/09/10 08:35:21;;;;;;;0.40;0.40;;;;;;;21.53;65.89;99863.13;4968939;28;20022;-70
2021/09/10 08:37:47;;;;;;;0.30;0.30;;;;;;;21.51;66.29;99871.81;4979481;28;20361;-73
2021/09/10 08:40:12;;;;;;;1.50;0.70;;;;;;;21.42;65.50;99858.03;4970533;28;20044;-71
2021/09/10 08:42:38;;;;;;;0.50;0.50;;;;;;;21.47;66.19;99864.50;4987426;28;20162;-72
2021/09/10 08:45:04;;;;;;;0.47;0.45;;;;;;;21.51;66.43;99859.88;4992436;28;20030;-74
2021/09/10 08:47:31;;;;;;;0.63;0.63;;;;;;;21.58;66.07;99865.63;4960901;28;20038;-73
2021/09/10 08:49:57;;;;;;;0.30;0.30;;;;;;;21.65;65.74;99876.97;4983564;28;20033;-72
2021/09/10 08:52:23;;;;;;;0.20;0.20;;;;;;;21.60;65.47;99875.25;4948229;28;20038;-73
2021/09/10 08:54:49;;;;;;;0.40;0.40;;;;;;;21.69;65.16;99866.75;4982379;28;20058;-72
2021/09/10 08:57:15;;;;;;;1.05;0.47;;;;;;;21.66;64.72;99878.59;4986640;28;20077;-75
2021/09/10 08:59:40;;;;;;;0.25;0.25;;;;;;;21.69;64.81;99883.44;4981833;28;20628;-73
2021/09/10 09:02:06;;;;;;;1.75;0.50;;;;;;;21.61;64.57;99879.66;4986563;28;20557;-73
2021/09/10 09:04:34;;;;;;;0.55;0.55;;;;;;;21.60;64.49;99886.38;4989763;28;20432;-72
2021/09/10 09:07:06;;;;;;;0.43;0.30;;;;;;;21.61;64.73;99887.19;4983990;28;20050;-73
2021/09/10 09:09:45;;;;;;;0.38;0.30;;;;;;;21.64;64.72;99880.09;4983353;28;20087;-73
2021/09/10 09:12:31;;;;;;;0.63;0.38;;;;;;;21.71;64.34;99886.69;4993015;28;20087;-73
2021/09/10 09:14:59;;;;;;;0.30;0.30;;;;;;;21.74;64.25;99899.06;4971154;28;20046;-72
2021/09/10 09:17:26;;;;;;;0.50;0.50;;;;;;;21.72;64.63;99893.06;4987227;28;20038;-74
2021/09/10 09:20:24;;;;;;;0.43;0.43;;;;;;;21.71;64.50;99897.84;4983362;28;20102;-72
2021/09/10 09:23:01;;;;;;;0.30;0.30;;;;;;;21.58;64.65;99899.03;4984478;28;20026;-73
2021/09/10 09:25:35;;;;;;;0.30;0.20;;;;;;;21.47;64.93;99897.88;4984938;28;20656;-74
2021/09/10 09:28:40;;;;;;;3.38;0.30;;;;;;;21.47;64.88;99901.47;4987884;28;20026;-74
2021/09/10 09:31:11;;;;;;;0.30;0.30;;;;;;;21.33;65.09;99893.50;4973748;28;20031;-75
2021/09/10 09:33:47;;;;;;;0.30;0.25;;;;;;;21.36;65.02;99903.94;4987751;28;20042;-73
2021/09/10 09:36:20;;;;;;;0.30;0.30;;;;;;;21.48;65.00;99907.84;4989560;28;20026;-75
2021/09/10 09:38:46;;;;;;;0.90;0.20;;;;;;;21.67;64.39;99908.03;4974158;28;20050;-73
2021/09/10 09:41:15;;;;;;;0.35;0.35;;;;;;;22.22;63.98;99915.88;4992429;28;20081;-74
2021/09/10 09:44:13;;;;;;;4.50;0.40;;;;;;;23.02;63.19;99913.91;4989843;28;20022;-73
2021/09/10 09:46:41;;;;;;;0.20;0.20;;;;;;;23.32;60.97;99911.44;4984733;28;20045;-73
2021/09/10 09:49:11;;;;;;;0.38;0.38;;;;;;;23.23;59.73;99918.38;4972356;28;20034;-74
2021/09/10 09:52:02;;;;;;;0.32;0.20;;;;;;;23.02;59.72;99920.28;4987770;28;20104;-73
2021/09/10 09:54:28;;;;;;;0.28;0.28;;;;;;;22.60;59.69;99917.28;4985408;28;20057;-72
2021/09/10 09:56:54;;;;;;;0.30;0.30;;;;;;;22.44;60.92;99922.84;4989721;28;20846;-73
2021/09/10 09:59:21;;;;;;;0.30;0.28;;;;;;;22.53;60.47;99919.88;4990649;28;20061;-75
2021/09/10 10:01:47;;;;;;;0.20;0.20;;;;;;;22.60;60.17;99920.06;4988506;28;20022;-74
2021/09/10 10:04:12;;;;;;;0.40;0.40;;;;;;;22.64;59.73;99926.53;4994043;28;20022;-74
2021/09/10 10:06:43;;;;;;;0.30;0.30;;;;;;;22.64;59.67;99932.13;4975677;28;20026;-74
2021/09/10 10:09:13;;;;;;;0.30;0.30;;;;;;;23.18;60.06;99927.84;4989561;28;20060;-73
2021/09/10 10:11:47;;;;;;;0.20;0.20;;;;;;;24.60;55.59;99926.69;4991070;28;20106;-74
2021/09/10 10:14:28;;;;;;;0.65;0.20;;;;;;;24.97;53.74;99926.91;4988404;28;20102;-73
2021/09/10 10:16:53;;;;;;;0.95;0.20;;;;;;;25.23;53.17;99931.69;4981795;28;20018;-73
2021/09/10 10:19:25;;;;;;;0.10;0.10;;;;;;;25.61;52.76;99929.00;4974896;28;20116;-75
2021/09/10 10:21:58;;;;;;;0.10;0.10;;;;;;;26.08;51.85;99930.38;4988996;28;20029;-75
2021/09/10 10:24:35;;;;;;;0.10;0.10;;;;;;;26.78;50.32;99935.44;4995951;28;20022;-72
2021/09/10 10:27:35;;;;;;;0.30;0.20;;;;;;;27.79;46.28;99927.66;4994464;28;20027;-74
2021/09/10 10:30:17;;;;;;;0.25;0.10;;;;;;;28.11;45.37;99943.81;4983093;28;20026;-74
2021/09/10 10:32:53;;;;;;;0.17;0.10;;;;;;;28.06;44.51;99938.59;4964028;28;20038;-75
2021/09/10 10:35:39;;;;;;;0.10;0.10;;;;;;;27.94;44.20;99932.09;4989136;28;20030;-74
2021/09/10 10:38:12;;;;;;;0.85;0.30;;;;;;;27.91;43.99;99938.50;4966347;28;20030;-74
2021/09/10 10:40:51;;;;;;;0.20;0.20;;;;;;;27.49;44.21;99931.53;4989855;28;20101;-75
2021/09/10 10:43:24;;;;;;;0.20;0.20;;;;;;;26.87;45.81;99930.31;4991889;28;20057;-74
2021/09/10 10:45:49;;;;;;;0.43;0.43;;;;;;;26.50;47.47;99928.38;4986104;28;20023;-74
2021/09/10 10:48:33;;;;;;;0.40;0.40;;;;;;;27.00;46.60;99928.81;4971214;28;20392;-73
2021/09/10 10:51:33;;;;;;;0.32;0.22;;;;;;;26.82;45.42;99927.88;4985925;28;20018;-74
2021/09/10 10:53:59;;;;;;;0.20;0.20;;;;;;;26.23;46.20;99928.53;4981919;28;20485;-73
2021/09/10 10:56:24;;;;;;;0.20;0.20;;;;;;;25.75;47.51;99933.97;4982413;28;20101;-74
2021/09/10 10:59:11;;;;;;;0.75;0.55;;;;;;;25.21;47.98;99922.84;4992257;28;20106;-75
2021/09/10 11:02:14;;;;;;;0.47;0.40;;;;;;;24.75;50.03;99922.97;4981795;28;20026;-75
2021/09/10 11:04:40;;;;;;;0.43;0.43;;;;;;;24.40;50.83;99929.53;4969052;28;20023;-74
2021/09/10 11:07:07;;;;;;;3.58;0.40;;;;;;;24.13;52.30;99926.63;4985771;28;20042;-75
2021/09/10 11:09:38;;;;;;;0.32;0.30;;;;;;;23.92;52.99;99926.22;4964794;28;20030;-75
2021/09/10 11:12:04;;;;;;;0.77;0.50;;;;;;;23.73;53.39;99927.84;4994707;28;20393;-75
2021/09/10 11:14:41;;;;;;;0.40;0.40;;;;;;;23.49;54.23;99932.50;4960437;28;20105;-73
2021/09/10 11:17:11;;;;;;;0.73;0.55;;;;;;;23.18;54.27;99922.25;4984815;28;20038;-75
2021/09/10 11:19:47;;;;;;;0.50;0.50;;;;;;;22.90;54.85;99927.97;4991249;28;20034;-75
2021/09/10 11:22:13;;;;;;;0.55;0.55;;;;;;;22.65;55.70;99933.75;4991932;28;20021;-75
2021/09/10 11:24:38;;;;;;;2.08;0.40;;;;;;;22.36;57.63;99930.22;4969532;28;20026;-75
2021/09/10 11:27:28;;;;;;;0.40;0.40;;;;;;;22.02;58.24;99935.25;4988289;28;20030;-73
2021/09/10 11:30:05;;;;;;;0.63;0.30;;;;;;;21.70;60.13;99935.16;4964186;28;20037;-74
2021/09/10 11:32:41;;;;;;;;;;;;;;;;;;;;;
2021/09/10 11:35:22;;;;;;;0.30;0.30;;;;;;;21.31;62.50;99934.78;4973833;28;20033;-74
2021/09/10 11:37:57;;;;;;;0.40;0.40;;;;;;;21.20;63.82;99941.97;4992441;28;20057;-74
2021/09/10 11:40:38;;;;;;;0.50;0.50;;;;;;;21.19;64.47;99938.38;4976390;28;20026;-73
2021/09/10 11:43:10;;;;;;;0.30;0.30;;;;;;;21.21;64.66;99936.06;4975785;28;20042;-74